Time;durP1;ratioP1;P1;durP2;ratioP2;P2;SDS_P1;SDS_P2;PMS_P1;PMS_P2;Temp;Humidity;BMP_temperature;BMP_pressure;BME280_temperature;BME280_humidity;BME280_pressure;Samples;Min_cycle;Max_cycle;Signal;HPM_P1;HPM_P2
2022/09/01 00:00:12;;;;;;;;;;;;;;;;;;1045825;28;4692;-53
2022/09/01 00:01:02;;;;;;;;;;;;;;;;;;1046434;28;3948;-49
2022/09/01 00:01:41;;;;;;;;;;;;;;;;;;1047624;28;3258;-51
2022/09/01 00:02:13;;;;;;;;;;;;;;;;;;1045887;28;4056;-52
2022/09/01 00:02:44;;;;;;;;;;;;;;;;;;1048300;28;2780;-47
2022/09/01 00:03:18;;;;;;;;;;;;;;;;;;1046508;28;3940;-47
2022/09/01 00:03:51;;;;;;;;;;;;;;;;;;1045895;28;3884;-51
2022/09/01 00:04:25;;;;;;;;;;;;;;;;;;1046959;28;3155;-49
2022/09/01 00:04:57;;;;;;;;;;;;;;;;;;1047248;28;4057;-47
2022/09/01 00:05:28;;;;;;;;;;;;;;;;;;1046224;28;3225;-49
2022/09/01 00:05:58;;;;;;;;;;;;;;;;;;1047057;28;4024;-47
2022/09/01 00:06:30;;;;;;;;;;;;;;;;;;1047174;28;3269;-48
2022/09/01 00:07:00;;;;;;;;;;;;;;;;;;1044570;28;3918;-48
2022/09/01 00:07:30;;;;;;;;;;;;;;;;;;1043993;28;3238;-47
2022/09/01 00:08:01;;;;;;;;;;;;;;;;;;1046410;28;3916;-49
2022/09/01 00:08:31;;;;;;;;;;;;;;;;;;1046402;28;2771;-50
2022/09/01 00:09:03;;;;;;;;;;;;;;;;;;1046752;28;4058;-49
2022/09/01 00:09:34;;;;;;;;;;;;;;;;;;1046147;28;4126;-51
2022/09/01 00:10:06;;;;;;;;;;;;;;;;;;1047604;28;3868;-50
2022/09/01 00:10:36;;;;;;;;;;;;;;;;;;1047211;28;3254;-49
2022/09/01 00:11:06;;;;;;;;;;;;;;;;;;1046962;28;3889;-49
2022/09/01 00:11:37;;;;;;;;;;;;;;;;;;1047355;28;3352;-48
2022/09/01 00:12:08;;;;;;;;;;;;;;;;;;1047845;28;4060;-52
2022/09/01 00:12:38;;;;;;;;;;;;;;;;;;1047658;28;3502;-48
2022/09/01 00:13:09;;;;;;;;;;;;;;;;;;1046533;28;3880;-52
2022/09/01 00:13:39;;;;;;;;;;;;;;;;;;1047190;28;3222;-48
2022/09/01 00:14:10;;;;;;;;;;;;;;;;;;1045642;28;4064;-50
2022/09/01 00:14:40;;;;;;;;;;;;;;;;;;1046754;28;3289;-50
2022/09/01 00:15:11;;;;;;;;;;;;;;;;;;1045979;28;3924;-51
2022/09/01 00:15:42;;;;;;;;;;;;;;;;;;1046456;28;3324;-47
2022/09/01 00:16:14;;;;;;;;;;;;;;;;;;1046802;28;3848;-50
2022/09/01 00:16:44;;;;;;;;;;;;;;;;;;1046880;28;3421;-50
2022/09/01 00:17:14;;;;;;;;;;;;;;;;;;1046164;28;4050;-54
2022/09/01 00:17:45;;;;;;;;;;;;;;;;;;1043930;28;2993;-49
2022/09/01 00:18:15;;;;;;;;;;;;;;;;;;1043356;28;3825;-49
2022/09/01 00:18:48;;;;;;;;;;;;;;;;;;1048124;28;3216;-50
2022/09/01 00:19:19;;;;;;;;;;;;;;;;;;1047310;28;3710;-50
2022/09/01 00:19:49;;;;;;;;;;;;;;;;;;1043865;28;4129;-50
2022/09/01 00:20:20;;;;;;;;;;;;;;;;;;1046943;28;3082;-48
2022/09/01 00:20:50;;;;;;;;;;;;;;;;;;1045960;28;4074;-48
2022/09/01 00:21:23;;;;;;;;;;;;;;;;;;1046002;28;2846;-51
2022/09/01 00:21:54;;;;;;;;;;;;;;;;;;1046598;28;4053;-51
2022/09/01 00:22:24;;;;;;;;;;;;;;;;;;1048007;28;4043;-51
2022/09/01 00:22:55;;;;;;;;;;;;;;;;;;1045915;28;4071;-50
2022/09/01 00:23:25;;;;;;;;;;;;;;;;;;1047056;28;5600;-50
2022/09/01 00:23:56;;;;;;;;;;;;;;;;;;1046207;28;3796;-50
2022/09/01 00:24:26;;;;;;;;;;;;;;;;;;1047098;28;3378;-51
2022/09/01 00:24:57;;;;;;;;;;;;;;;;;;1045945;28;4124;-50
2022/09/01 00:25:27;;;;;;;;;;;;;;;;;;1046103;28;2660;-48
2022/09/01 00:25:57;;;;;;;;;;;;;;;;;;1046536;28;3845;-49
2022/09/01 00:26:28;;;;;;;;;;;;;;;;;;1047569;28;3102;-49
2022/09/01 00:26:58;;;;;;;;;;;;;;;;;;1046515;28;4009;-48
2022/09/01 00:27:28;;;;;;;;;;;;;;;;;;1046864;28;2536;-48
2022/09/01 00:28:03;;;;;;;;;;;;;;;;;;1046428;28;3884;-52
2022/09/01 00:28:35;;;;;;;;;;;;;;;;;;1047125;28;3305;-50
2022/09/01 00:29:05;;;;;;;;;;;;;;;;;;1046751;28;4030;-55
2022/09/01 00:29:35;;;;;;;;;;;;;;;;;;1047357;28;3465;-52
2022/09/01 00:30:06;;;;;;;;;;;;;;;;;;1046137;28;3990;-52
2022/09/01 00:30:36;;;;;;;;;;;;;;;;;;1046937;28;4736;-51
2022/09/01 00:31:08;;;;;;;;;;;;;;;;;;1047801;28;4016;-51
2022/09/01 00:31:38;;;;;;;;;;;;;;;;;;1046988;28;2986;-50
2022/09/01 00:32:08;;;;;;;;;;;;;;;;;;1047819;28;3862;-48
2022/09/01 00:32:39;;;;;;;;;;;;;;;;;;1045340;28;3446;-50
2022/09/01 00:33:09;;;;;;;;;;;;;;;;;;1043522;28;4074;-51
2022/09/01 00:33:40;;;;;;;;;;;;;;;;;;1042391;28;3727;-54
2022/09/01 00:34:10;;;;;;;;;;;;;;;;;;1047470;28;3923;-49
2022/09/01 00:34:40;;;;;;;;;;;;;;;;;;1047876;28;3510;-50
2022/09/01 00:35:15;;;;;;;;;;;;;;;;;;1043476;28;4077;-49
2022/09/01 00:35:46;;;;;;;;;;;;;;;;;;1044601;28;3151;-51
2022/09/01 00:36:17;;;;;;;;;;;;;;;;;;1048035;28;3867;-49
2022/09/01 00:36:47;;;;;;;;;;;;;;;;;;1049785;28;4236;-53
2022/09/01 00:37:17;;;;;;;;;;;;;;;;;;1046502;28;3275;-50
2022/09/01 00:37:47;;;;;;;;;;;;;;;;;;1046691;28;4085;-52
2022/09/01 00:38:18;;;;;;;;;;;;;;;;;;1047482;28;2755;-49
2022/09/01 00:38:49;;;;;;;;;;;;;;;;;;1047143;28;4093;-50
2022/09/01 00:39:19;;;;;;;;;;;;;;;;;;1046023;28;3334;-48
2022/09/01 00:39:49;;;;;;;;;;;;;;;;;;1048685;28;3805;-49
2022/09/01 00:40:20;;;;;;;;;;;;;;;;;;1048299;28;2731;-53
2022/09/01 00:40:50;;;;;;;;;;;;;;;;;;1048892;28;4229;-48
2022/09/01 00:41:22;;;;;;;;;;;;;;;;;;1047442;28;2634;-48
2022/09/01 00:41:52;;;;;;;;;;;;;;;;;;1047201;28;3922;-51
2022/09/01 00:42:22;;;;;;;;;;;;;;;;;;1046431;28;3409;-50
2022/09/01 00:42:52;;;;;;;;;;;;;;;;;;1047238;28;3822;-49
2022/09/01 00:43:38;;;;;;;;;;;;;;;;;;1045428;28;3089;-49
2022/09/01 00:44:10;;;;;;;;;;;;;;;;;;1047357;28;4037;-50
2022/09/01 00:44:41;;;;;;;;;;;;;;;;;;1047108;28;3713;-47
2022/09/01 00:45:11;;;;;;;;;;;;;;;;;;1047026;28;4212;-50
2022/09/01 00:45:41;;;;;;;;;;;;;;;;;;1046217;28;3203;-50
2022/09/01 00:46:14;;;;;;;;;;;;;;;;;;1047486;28;3853;-51
2022/09/01 00:46:45;;;;;;;;;;;;;;;;;;1047176;28;3446;-47
2022/09/01 00:47:16;;;;;;;;;;;;;;;;;;1046539;28;3784;-48
2022/09/01 00:47:52;;;;;;;;;;;;;;;;;;1045272;28;3992;-50
2022/09/01 00:48:23;;;;;;;;;;;;;;;;;;1046038;28;3557;-51
2022/09/01 00:49:14;;;;;;;;;;;;;;;;;;1046926;28;3870;-49
2022/09/01 00:49:58;;;;;;;;;;;;;;;;;;1046154;28;3408;-49
2022/09/01 00:50:36;;;;;;;;;;;;;;;;;;1049763;28;3809;-46
2022/09/01 00:51:08;;;;;;;;;;;;;;;;;;1051582;28;4036;-49
2022/09/01 00:51:39;;;;;;;;;;;;;;;;;;1049911;28;3534;-49
2022/09/01 00:52:12;;;;;;;;;;;;;;;;;;1051665;28;4075;-54
2022/09/01 00:52:50;;;;;;;;;;;;;;;;;;1050929;28;3405;-50
2022/09/01 00:53:21;;;;;;;;;;;;;;;;;;1051853;28;3821;-50
2022/09/01 00:53:51;;;;;;;;;;;;;;;;;;1049953;28;4100;-50
2022/09/01 00:54:23;;;;;;;;;;;;;;;;;;1050919;28;3353;-49
2022/09/01 00:54:56;;;;;;;;;;;;;;;;;;1050437;28;4097;-49
2022/09/01 00:55:28;;;;;;;;;;;;;;;;;;1050531;28;3027;-47
2022/09/01 00:55:59;;;;;;;;;;;;;;;;;;1051446;28;3987;-51
2022/09/01 00:56:30;;;;;;;;;;;;;;;;;;1050590;28;2956;-49
2022/09/01 00:57:01;;;;;;;;;;;;;;;;;;1050368;28;4034;-50
2022/09/01 00:57:32;;;;;;;;;;;;;;;;;;1049316;28;3807;-51
2022/09/01 00:58:02;;;;;;;;;;;;;;;;;;1050834;28;4051;-50
2022/09/01 00:58:34;;;;;;;;;;;;;;;;;;1050499;28;3384;-46
2022/09/01 00:59:05;;;;;;;;;;;;;;;;;;1046054;28;4072;-51
2022/09/01 00:59:37;;;;;;;;;;;;;;;;;;1046864;28;3730;-49
2022/09/01 01:00:11;;;;;;;;;;;;;;;;;;1041498;28;3871;-48
2022/09/01 01:00:41;;;;;;;;;;;;;;;;;;1046041;28;3553;-48
2022/09/01 01:01:12;;;;;;;;;;;;;;;;;;1050336;28;4814;-49
2022/09/01 01:01:42;;;;;;;;;;;;;;;;;;1049089;28;3478;-48
2022/09/01 01:02:13;;;;;;;;;;;;;;;;;;1052205;28;3936;-51
2022/09/01 01:02:43;;;;;;;;;;;;;;;;;;1053384;28;4555;-49
2022/09/01 01:03:14;;;;;;;;;;;;;;;;;;1051791;28;3809;-50
2022/09/01 01:03:45;;;;;;;;;;;;;;;;;;1051273;28;3688;-48
2022/09/01 01:04:16;;;;;;;;;;;;;;;;;;1052796;28;3826;-51
2022/09/01 01:04:46;;;;;;;;;;;;;;;;;;1051508;28;3887;-50
2022/09/01 01:05:17;;;;;;;;;;;;;;;;;;1050836;28;5752;-54
2022/09/01 01:05:52;;;;;;;;;;;;;;;;;;1051642;28;4752;-50
2022/09/01 01:06:26;;;;;;;;;;;;;;;;;;1048105;28;3111;-51
2022/09/01 01:07:00;;;;;;;;;;;;;;;;;;1048076;28;4025;-50
2022/09/01 01:07:34;;;;;;;;;;;;;;;;;;1047968;28;3488;-49
2022/09/01 01:08:06;;;;;;;;;;;;;;;;;;1048770;28;4122;-50
2022/09/01 01:08:38;;;;;;;;;;;;;;;;;;1052567;28;2959;-50
2022/09/01 01:09:09;;;;;;;;;;;;;;;;;;1051552;28;3965;-54
2022/09/01 01:09:40;;;;;;;;;;;;;;;;;;1051129;28;3155;-48
2022/09/01 01:10:12;;;;;;;;;;;;;;;;;;1048250;28;4001;-50
2022/09/01 01:10:42;;;;;;;;;;;;;;;;;;1047526;28;3228;-50
2022/09/01 01:11:16;;;;;;;;;;;;;;;;;;1047994;28;4238;-48
2022/09/01 01:11:47;;;;;;;;;;;;;;;;;;1048125;28;4140;-48
2022/09/01 01:12:18;;;;;;;;;;;;;;;;;;1052128;28;3173;-49
2022/09/01 01:12:51;;;;;;;;;;;;;;;;;;1050827;28;3944;-48
2022/09/01 01:13:24;;;;;;;;;;;;;;;;;;1050526;28;3081;-48
2022/09/01 01:13:57;;;;;;;;;;;;;;;;;;1049533;28;3828;-51
2022/09/01 01:14:30;;;;;;;;;;;;;;;;;;1047272;28;2982;-49
2022/09/01 01:15:02;;;;;;;;;;;;;;;;;;1046865;28;3999;-48
2022/09/01 01:15:32;;;;;;;;;;;;;;;;;;1047247;28;3690;-52
2022/09/01 01:16:07;;;;;;;;;;;;;;;;;;1047802;28;4240;-47
2022/09/01 01:16:42;;;;;;;;;;;;;;;;;;1051297;28;3401;-52
2022/09/01 01:17:13;;;;;;;;;;;;;;;;;;1047316;28;3841;-47
2022/09/01 01:17:43;;;;;;;;;;;;;;;;;;1043783;28;2810;-48
2022/09/01 01:18:14;;;;;;;;;;;;;;;;;;1043532;28;3858;-52
2022/09/01 01:18:45;;;;;;;;;;;;;;;;;;1042670;28;2719;-50
2022/09/01 01:23:20;;;;;;;;;;;;;;;;;;1051217;28;3932;-50
2022/09/01 01:23:56;;;;;;;;;;;;;;;;;;1052119;28;4205;-49
2022/09/01 01:24:28;;;;;;;;;;;;;;;;;;1051281;28;3177;-49
2022/09/01 01:25:00;;;;;;;;;;;;;;;;;;1052466;28;3901;-48
2022/09/01 01:25:32;;;;;;;;;;;;;;;;;;1052141;28;3363;-49
2022/09/01 01:26:04;;;;;;;;;;;;;;;;;;1051676;28;4049;-49
2022/09/01 01:26:34;;;;;;;;;;;;;;;;;;1051898;28;3192;-49
2022/09/01 01:27:05;;;;;;;;;;;;;;;;;;1051770;28;3958;-53
2022/09/01 01:27:36;;;;;;;;;;;;;;;;;;1052525;28;2235;-49
2022/09/01 01:28:07;;;;;;;;;;;;;;;;;;1052037;28;3892;-51
2022/09/01 01:28:39;;;;;;;;;;;;;;;;;;1051815;28;3293;-47
2022/09/01 01:29:09;;;;;;;;;;;;;;;;;;1051647;28;4040;-50
2022/09/01 01:29:40;;;;;;;;;;;;;;;;;;1051885;28;3214;-49
2022/09/01 01:30:11;;;;;;;;;;;;;;;;;;1052405;28;4026;-50
2022/09/01 01:30:43;;;;;;;;;;;;;;;;;;1052279;28;3221;-51
2022/09/01 01:31:15;;;;;;;;;;;;;;;;;;1050835;28;3995;-46
2022/09/01 01:31:50;;;;;;;;;;;;;;;;;;1047608;28;2957;-49
2022/09/01 01:32:21;;;;;;;;;;;;;;;;;;1048481;28;3840;-52
2022/09/01 01:32:51;;;;;;;;;;;;;;;;;;1047196;28;4220;-50
2022/09/01 01:33:23;;;;;;;;;;;;;;;;;;1048104;28;2947;-50
2022/09/01 01:33:55;;;;;;;;;;;;;;;;;;1043548;28;4081;-53
2022/09/01 01:34:25;;;;;;;;;;;;;;;;;;1045974;28;3766;-51
2022/09/01 01:34:56;;;;;;;;;;;;;;;;;;1044665;28;4144;-52
2022/09/01 01:35:26;;;;;;;;;;;;;;;;;;1041709;28;3245;-51
2022/09/01 01:35:57;;;;;;;;;;;;;;;;;;1045931;28;3807;-53
2022/09/01 01:36:35;;;;;;;;;;;;;;;;;;1047243;28;2999;-53
2022/09/01 01:37:13;;;;;;;;;;;;;;;;;;1049717;28;3855;-48
2022/09/01 01:37:45;;;;;;;;;;;;;;;;;;1050734;28;2828;-51
2022/09/01 01:38:15;;;;;;;;;;;;;;;;;;1052240;28;3977;-49
2022/09/01 01:38:47;;;;;;;;;;;;;;;;;;1051411;28;4107;-50
2022/09/01 01:39:26;;;;;;;;;;;;;;;;;;1051718;28;2274;-49
2022/09/01 01:39:56;;;;;;;;;;;;;;;;;;1051727;28;4132;-53
2022/09/01 01:40:27;;;;;;;;;;;;;;;;;;1051017;28;3156;-47
2022/09/01 01:40:58;;;;;;;;;;;;;;;;;;1051412;28;4065;-49
2022/09/01 01:41:30;;;;;;;;;;;;;;;;;;1051269;28;2989;-49
2022/09/01 01:42:01;;;;;;;;;;;;;;;;;;1051353;28;3869;-48
2022/09/01 01:42:32;;;;;;;;;;;;;;;;;;1049379;28;2340;-52
2022/09/01 01:43:03;;;;;;;;;;;;;;;;;;1050407;28;3872;-48
2022/09/01 01:43:34;;;;;;;;;;;;;;;;;;1048392;28;3155;-52
2022/09/01 01:44:04;;;;;;;;;;;;;;;;;;1051087;28;4084;-47
2022/09/01 01:44:37;;;;;;;;;;;;;;;;;;1050394;28;3539;-52
2022/09/01 01:45:11;;;;;;;;;;;;;;;;;;1052271;28;3828;-52
2022/09/01 01:45:41;;;;;;;;;;;;;;;;;;1051660;28;3228;-48
2022/09/01 01:46:13;;;;;;;;;;;;;;;;;;1050458;28;3914;-51
2022/09/01 01:46:45;;;;;;;;;;;;;;;;;;1052214;28;2842;-49
2022/09/01 01:47:16;;;;;;;;;;;;;;;;;;1051877;28;3867;-50
2022/09/01 01:47:55;;;;;;;;;;;;;;;;;;1051853;28;4056;-53
2022/09/01 01:48:27;;;;;;;;;;;;;;;;;;1052579;28;2638;-49
2022/09/01 01:48:57;;;;;;;;;;;;;;;;;;1051279;28;4191;-48
2022/09/01 01:49:29;;;;;;;;;;;;;;;;;;1050426;28;3002;-48
2022/09/01 01:50:14;;;;;;;;;;;;;;;;;;1047101;28;4090;-46
2022/09/01 01:50:51;;;;;;;;;;;;;;;;;;1046984;28;4033;-50
2022/09/01 01:51:26;;;;;;;;;;;;;;;;;;1047456;28;2620;-48
2022/09/01 01:51:56;;;;;;;;;;;;;;;;;;1052946;28;3903;-48
2022/09/01 01:52:27;;;;;;;;;;;;;;;;;;1052336;28;3022;-50
2022/09/01 01:53:00;;;;;;;;;;;;;;;;;;1053917;28;4033;-53
2022/09/01 01:53:31;;;;;;;;;;;;;;;;;;1052889;28;3469;-52
2022/09/01 01:54:04;;;;;;;;;;;;;;;;;;1047492;28;3857;-47
2022/09/01 01:54:34;;;;;;;;;;;;;;;;;;1047585;28;3263;-51
2022/09/01 01:55:11;;;;;;;;;;;;;;;;;;1047448;28;4157;-51
2022/09/01 01:55:42;;;;;;;;;;;;;;;;;;1048045;28;3210;-54
2022/09/01 01:56:13;;;;;;;;;;;;;;;;;;1047200;28;3957;-50
2022/09/01 01:56:43;;;;;;;;;;;;;;;;;;1047540;28;3516;-51
2022/09/01 01:57:16;;;;;;;;;;;;;;;;;;1046153;28;3856;-53
2022/09/01 01:57:49;;;;;;;;;;;;;;;;;;1046015;28;4018;-52
2022/09/01 01:58:21;;;;;;;;;;;;;;;;;;1046291;28;2461;-49
2022/09/01 01:58:53;;;;;;;;;;;;;;;;;;1046475;28;4086;-48
2022/09/01 01:59:25;;;;;;;;;;;;;;;;;;1046020;28;3016;-51
2022/09/01 01:59:55;;;;;;;;;;;;;;;;;;1048128;28;4076;-53
2022/09/01 02:00:27;;;;;;;;;;;;;;;;;;1045234;28;5148;-51
2022/09/01 02:00:58;;;;;;;;;;;;;;;;;;1047719;28;3895;-50
2022/09/01 02:01:30;;;;;;;;;;;;;;;;;;1046956;28;2612;-48
2022/09/01 02:02:02;;;;;;;;;;;;;;;;;;1048581;28;4175;-52
2022/09/01 02:02:32;;;;;;;;;;;;;;;;;;1046577;28;2731;-49
2022/09/01 02:03:04;;;;;;;;;;;;;;;;;;1048386;28;3968;-50
2022/09/01 02:03:37;;;;;;;;;;;;;;;;;;1048566;28;3337;-49
2022/09/01 02:04:08;;;;;;;;;;;;;;;;;;1050017;28;4263;-50
2022/09/01 02:04:39;;;;;;;;;;;;;;;;;;1047203;28;3849;-50
2022/09/01 02:05:11;;;;;;;;;;;;;;;;;;1050349;28;4077;-49
2022/09/01 02:05:41;;;;;;;;;;;;;;;;;;1048685;28;3090;-49
2022/09/01 02:06:12;;;;;;;;;;;;;;;;;;1047920;28;4098;-50
2022/09/01 02:06:44;;;;;;;;;;;;;;;;;;1047750;28;3049;-49
2022/09/01 02:07:15;;;;;;;;;;;;;;;;;;1048344;28;3815;-47
2022/09/01 02:07:45;;;;;;;;;;;;;;;;;;1045486;28;4119;-52
2022/09/01 02:08:20;;;;;;;;;;;;;;;;;;1047984;28;2265;-49
2022/09/01 02:08:51;;;;;;;;;;;;;;;;;;1047809;28;3921;-47
2022/09/01 02:09:22;;;;;;;;;;;;;;;;;;1046843;28;2930;-48
2022/09/01 02:10:00;;;;;;;;;;;;;;;;;;1047095;28;3951;-52
2022/09/01 02:10:32;;;;;;;;;;;;;;;;;;1045654;28;2932;-52
2022/09/01 02:11:04;;;;;;;;;;;;;;;;;;1046762;28;4050;-50
2022/09/01 02:11:36;;;;;;;;;;;;;;;;;;1047261;28;3411;-52
2022/09/01 02:12:07;;;;;;;;;;;;;;;;;;1047284;28;3926;-48
2022/09/01 02:12:40;;;;;;;;;;;;;;;;;;1046587;28;2884;-47
2022/09/01 02:13:15;;;;;;;;;;;;;;;;;;1047298;28;4034;-50
2022/09/01 02:13:45;;;;;;;;;;;;;;;;;;1047449;28;3359;-51
2022/09/01 02:14:19;;;;;;;;;;;;;;;;;;1048106;28;3888;-50
2022/09/01 02:14:49;;;;;;;;;;;;;;;;;;1046172;28;4396;-50
2022/09/01 02:15:19;;;;;;;;;;;;;;;;;;1048247;28;3371;-49
2022/09/01 02:15:52;;;;;;;;;;;;;;;;;;1046262;28;4159;-49
2022/09/01 02:16:24;;;;;;;;;;;;;;;;;;1047158;28;1970;-48
2022/09/01 02:16:54;;;;;;;;;;;;;;;;;;1047401;28;4033;-47
2022/09/01 02:17:26;;;;;;;;;;;;;;;;;;1047365;28;2975;-52
2022/09/01 02:17:59;;;;;;;;;;;;;;;;;;1048265;28;3904;-48
2022/09/01 02:18:34;;;;;;;;;;;;;;;;;;1048087;28;3567;-48
2022/09/01 02:19:07;;;;;;;;;;;;;;;;;;1047408;28;3787;-47
2022/09/01 02:19:41;;;;;;;;;;;;;;;;;;1046900;28;3163;-50
2022/09/01 02:20:14;;;;;;;;;;;;;;;;;;1046919;28;3843;-49
2022/09/01 02:20:46;;;;;;;;;;;;;;;;;;1047402;28;2369;-47
2022/09/01 02:21:19;;;;;;;;;;;;;;;;;;1047366;28;3782;-47
2022/09/01 02:21:54;;;;;;;;;;;;;;;;;;1048235;28;4090;-46
2022/09/01 02:22:25;;;;;;;;;;;;;;;;;;1047250;28;3828;-52
2022/09/01 02:22:55;;;;;;;;;;;;;;;;;;1047000;28;4178;-48
2022/09/01 02:23:26;;;;;;;;;;;;;;;;;;1048123;28;3296;-49
2022/09/01 02:24:01;;;;;;;;;;;;;;;;;;1046604;28;4030;-48
2022/09/01 02:24:31;;;;;;;;;;;;;;;;;;1047595;28;3513;-50
2022/09/01 02:25:03;;;;;;;;;;;;;;;;;;1047935;28;4217;-52
2022/09/01 02:25:34;;;;;;;;;;;;;;;;;;1049091;28;3304;-51
2022/09/01 02:26:05;;;;;;;;;;;;;;;;;;1046982;28;4053;-51
2022/09/01 02:26:38;;;;;;;;;;;;;;;;;;1047709;28;3197;-50
2022/09/01 02:27:08;;;;;;;;;;;;;;;;;;1047986;28;3883;-52
2022/09/01 02:27:41;;;;;;;;;;;;;;;;;;1047826;28;4521;-48
2022/09/01 02:28:14;;;;;;;;;;;;;;;;;;1046469;28;3865;-49
2022/09/01 02:28:48;;;;;;;;;;;;;;;;;;1049120;28;2486;-49
2022/09/01 02:29:20;;;;;;;;;;;;;;;;;;1048080;28;3749;-53
2022/09/01 02:29:54;;;;;;;;;;;;;;;;;;1046918;28;4014;-47
2022/09/01 02:30:26;;;;;;;;;;;;;;;;;;1045785;28;3228;-53
2022/09/01 02:30:58;;;;;;;;;;;;;;;;;;1047749;28;3921;-48
2022/09/01 02:31:30;;;;;;;;;;;;;;;;;;1047149;28;3175;-49
2022/09/01 02:32:01;;;;;;;;;;;;;;;;;;1046605;28;3859;-49
2022/09/01 02:32:31;;;;;;;;;;;;;;;;;;1048454;28;3485;-49
2022/09/01 02:33:01;;;;;;;;;;;;;;;;;;1047851;28;4039;-55
2022/09/01 02:33:32;;;;;;;;;;;;;;;;;;1047420;28;3350;-53
2022/09/01 02:34:12;;;;;;;;;;;;;;;;;;1046827;28;4031;-49
2022/09/01 02:34:43;;;;;;;;;;;;;;;;;;1047514;28;3388;-51
2022/09/01 02:35:13;;;;;;;;;;;;;;;;;;1047534;28;3916;-48
2022/09/01 02:35:44;;;;;;;;;;;;;;;;;;1050122;28;3452;-48
2022/09/01 02:36:16;;;;;;;;;;;;;;;;;;1048488;28;3794;-49
2022/09/01 02:36:47;;;;;;;;;;;;;;;;;;1048966;28;3907;-48
2022/09/01 02:37:23;;;;;;;;;;;;;;;;;;1054066;28;2865;-49
2022/09/01 02:37:57;;;;;;;;;;;;;;;;;;1051524;28;4084;-48
2022/09/01 02:38:28;;;;;;;;;;;;;;;;;;1047533;28;3282;-49
2022/09/01 02:38:58;;;;;;;;;;;;;;;;;;1047602;28;3912;-50
2022/09/01 02:39:32;;;;;;;;;;;;;;;;;;1047229;28;3226;-51
2022/09/01 02:40:02;;;;;;;;;;;;;;;;;;1048955;28;3895;-52
2022/09/01 02:40:33;;;;;;;;;;;;;;;;;;1049386;28;3179;-51
2022/09/01 02:41:03;;;;;;;;;;;;;;;;;;1048615;28;3887;-47
2022/09/01 02:41:33;;;;;;;;;;;;;;;;;;1048518;28;3750;-52
2022/09/01 02:42:03;;;;;;;;;;;;;;;;;;1049181;28;4407;-53
2022/09/01 02:42:35;;;;;;;;;;;;;;;;;;1045917;28;3961;-54
2022/09/01 02:43:05;;;;;;;;;;;;;;;;;;1047568;28;3890;-51
2022/09/01 02:43:36;;;;;;;;;;;;;;;;;;1047204;28;3005;-51
2022/09/01 02:44:13;;;;;;;;;;;;;;;;;;1048396;28;4110;-48
2022/09/01 02:44:43;;;;;;;;;;;;;;;;;;1047296;28;3236;-53
2022/09/01 02:45:15;;;;;;;;;;;;;;;;;;1047764;28;3961;-48
2022/09/01 02:45:46;;;;;;;;;;;;;;;;;;1049761;28;1797;-48
2022/09/01 02:46:17;;;;;;;;;;;;;;;;;;1049936;28;3723;-53
2022/09/01 02:46:49;;;;;;;;;;;;;;;;;;1046558;28;4240;-52
2022/09/01 02:47:21;;;;;;;;;;;;;;;;;;1048326;28;3472;-52
2022/09/01 02:47:52;;;;;;;;;;;;;;;;;;1047357;28;4381;-53
2022/09/01 02:48:31;;;;;;;;;;;;;;;;;;1046523;28;3250;-50
2022/09/01 02:49:03;;;;;;;;;;;;;;;;;;1045240;28;4207;-49
2022/09/01 02:49:34;;;;;;;;;;;;;;;;;;1047618;28;3209;-49
2022/09/01 02:50:18;;;;;;;;;;;;;;;;;;1047262;28;4084;-50
2022/09/01 02:50:58;;;;;;;;;;;;;;;;;;1050523;28;3794;-49
2022/09/01 02:51:28;;;;;;;;;;;;;;;;;;1051493;28;3227;-48
2022/09/01 02:52:00;;;;;;;;;;;;;;;;;;1050854;28;4035;-48
2022/09/01 02:52:34;;;;;;;;;;;;;;;;;;1050832;28;3735;-49
2022/09/01 02:53:08;;;;;;;;;;;;;;;;;;1050993;28;3895;-52
2022/09/01 02:53:40;;;;;;;;;;;;;;;;;;1051802;28;3000;-51
2022/09/01 02:54:15;;;;;;;;;;;;;;;;;;1050387;28;4188;-51
2022/09/01 02:54:49;;;;;;;;;;;;;;;;;;1051587;28;3532;-51
2022/09/01 02:55:21;;;;;;;;;;;;;;;;;;1050052;28;3982;-49
2022/09/01 02:55:51;;;;;;;;;;;;;;;;;;1052347;28;3861;-49
2022/09/01 02:56:23;;;;;;;;;;;;;;;;;;1050558;28;3167;-51
2022/09/01 02:56:53;;;;;;;;;;;;;;;;;;1051717;28;4065;-50
2022/09/01 02:57:24;;;;;;;;;;;;;;;;;;1050142;28;3419;-50
2022/09/01 02:57:57;;;;;;;;;;;;;;;;;;1052761;28;4099;-47
2022/09/01 02:58:28;;;;;;;;;;;;;;;;;;1050756;28;3154;-51
2022/09/01 02:59:00;;;;;;;;;;;;;;;;;;1051761;28;4185;-48
2022/09/01 02:59:31;;;;;;;;;;;;;;;;;;1051411;28;2578;-52
2022/09/01 03:00:03;;;;;;;;;;;;;;;;;;1048616;28;4220;-49
2022/09/01 03:00:36;;;;;;;;;;;;;;;;;;1050203;28;3278;-47
2022/09/01 03:01:10;;;;;;;;;;;;;;;;;;1052253;28;4017;-52
2022/09/01 03:01:40;;;;;;;;;;;;;;;;;;1051496;28;3564;-50
2022/09/01 03:02:11;;;;;;;;;;;;;;;;;;1052302;28;3869;-52
2022/09/01 03:02:41;;;;;;;;;;;;;;;;;;1050840;28;2902;-50
2022/09/01 03:03:11;;;;;;;;;;;;;;;;;;1052866;28;3990;-48
2022/09/01 03:03:41;;;;;;;;;;;;;;;;;;1051745;28;3302;-49
2022/09/01 03:04:12;;;;;;;;;;;;;;;;;;1051655;28;3884;-53
2022/09/01 03:04:42;;;;;;;;;;;;;;;;;;1051145;28;3752;-53
2022/09/01 03:05:15;;;;;;;;;;;;;;;;;;1051566;28;3970;-49
2022/09/01 03:05:45;;;;;;;;;;;;;;;;;;1050460;28;2464;-48
2022/09/01 03:06:18;;;;;;;;;;;;;;;;;;1051144;28;3774;-50
2022/09/01 03:06:53;;;;;;;;;;;;;;;;;;1050773;28;4262;-52
2022/09/01 03:07:24;;;;;;;;;;;;;;;;;;1051323;28;3218;-51
2022/09/01 03:07:56;;;;;;;;;;;;;;;;;;1050744;28;3868;-48
2022/09/01 03:08:27;;;;;;;;;;;;;;;;;;1051392;28;2796;-49
2022/09/01 03:09:00;;;;;;;;;;;;;;;;;;1048273;28;3917;-47
2022/09/01 03:09:31;;;;;;;;;;;;;;;;;;1048730;28;2965;-50
2022/09/01 03:10:02;;;;;;;;;;;;;;;;;;1047359;28;3880;-47
2022/09/01 03:10:34;;;;;;;;;;;;;;;;;;1048197;28;3371;-52
2022/09/01 03:11:07;;;;;;;;;;;;;;;;;;1051438;28;3927;-45
2022/09/01 03:11:38;;;;;;;;;;;;;;;;;;1051710;28;3349;-52
2022/09/01 03:12:09;;;;;;;;;;;;;;;;;;1050980;28;3800;-49
2022/09/01 03:12:39;;;;;;;;;;;;;;;;;;1051409;28;2789;-50
2022/09/01 03:13:11;;;;;;;;;;;;;;;;;;1050504;28;3868;-47
2022/09/01 03:13:41;;;;;;;;;;;;;;;;;;1052693;28;2980;-50
2022/09/01 03:14:12;;;;;;;;;;;;;;;;;;1050175;28;3998;-52
2022/09/01 03:14:42;;;;;;;;;;;;;;;;;;1047054;28;3824;-50
2022/09/01 03:15:12;;;;;;;;;;;;;;;;;;1045044;28;3860;-50
2022/09/01 03:15:43;;;;;;;;;;;;;;;;;;1046229;28;4503;-52
2022/09/01 03:16:13;;;;;;;;;;;;;;;;;;1047527;28;4182;-52
2022/09/01 03:16:44;;;;;;;;;;;;;;;;;;1052511;28;3288;-49
2022/09/01 03:17:14;;;;;;;;;;;;;;;;;;1048826;28;4024;-49
2022/09/01 03:17:44;;;;;;;;;;;;;;;;;;1051398;28;3283;-49
2022/09/01 03:18:17;;;;;;;;;;;;;;;;;;1048667;28;3809;-50
2022/09/01 03:18:48;;;;;;;;;;;;;;;;;;1050483;28;4082;-49
2022/09/01 03:19:18;;;;;;;;;;;;;;;;;;1050923;28;1972;-46
2022/09/01 03:19:50;;;;;;;;;;;;;;;;;;1051199;28;4016;-50
2022/09/01 03:20:21;;;;;;;;;;;;;;;;;;1051195;28;2804;-49
2022/09/01 03:20:51;;;;;;;;;;;;;;;;;;1048077;28;3903;-51
2022/09/01 03:21:30;;;;;;;;;;;;;;;;;;1048843;28;3219;-50
2022/09/01 03:22:01;;;;;;;;;;;;;;;;;;1046611;28;4273;-50
2022/09/01 03:22:32;;;;;;;;;;;;;;;;;;1049381;28;2643;-48
2022/09/01 03:23:03;;;;;;;;;;;;;;;;;;1046339;28;3793;-49
2022/09/01 03:23:34;;;;;;;;;;;;;;;;;;1046641;28;3175;-49
2022/09/01 03:24:04;;;;;;;;;;;;;;;;;;1048112;28;4048;-48
2022/09/01 03:24:35;;;;;;;;;;;;;;;;;;1047496;28;2867;-49
2022/09/01 03:25:05;;;;;;;;;;;;;;;;;;1050502;28;3858;-52
2022/09/01 03:25:36;;;;;;;;;;;;;;;;;;1050995;28;3255;-46
2022/09/01 03:26:06;;;;;;;;;;;;;;;;;;1050421;28;3921;-53
2022/09/01 03:26:36;;;;;;;;;;;;;;;;;;1051983;28;2985;-49
2022/09/01 03:27:07;;;;;;;;;;;;;;;;;;1051650;28;3796;-52
2022/09/01 03:27:38;;;;;;;;;;;;;;;;;;1052277;28;3142;-53
2022/09/01 03:28:09;;;;;;;;;;;;;;;;;;1050854;28;4047;-51
2022/09/01 03:28:39;;;;;;;;;;;;;;;;;;1050946;28;3262;-51
2022/09/01 03:29:10;;;;;;;;;;;;;;;;;;1052722;28;3773;-48
2022/09/01 03:29:40;;;;;;;;;;;;;;;;;;1050209;28;2929;-46
2022/09/01 03:30:11;;;;;;;;;;;;;;;;;;1050991;28;3795;-51
2022/09/01 03:30:51;;;;;;;;;;;;;;;;;;1050798;28;4179;-47
2022/09/01 03:31:21;;;;;;;;;;;;;;;;;;1050875;28;3845;-51
2022/09/01 03:31:51;;;;;;;;;;;;;;;;;;1051040;28;4028;-53
2022/09/01 03:32:23;;;;;;;;;;;;;;;;;;1047241;28;3195;-52
2022/09/01 03:32:53;;;;;;;;;;;;;;;;;;1049282;28;4087;-49
2022/09/01 03:33:25;;;;;;;;;;;;;;;;;;1047557;28;3687;-50
2022/09/01 03:33:56;;;;;;;;;;;;;;;;;;1048507;28;4047;-48
2022/09/01 03:34:27;;;;;;;;;;;;;;;;;;1051541;28;3674;-48
2022/09/01 03:34:57;;;;;;;;;;;;;;;;;;1051309;28;4078;-52
2022/09/01 03:35:30;;;;;;;;;;;;;;;;;;1051976;28;3155;-49
2022/09/01 03:36:01;;;;;;;;;;;;;;;;;;1051706;28;3838;-51
2022/09/01 03:36:32;;;;;;;;;;;;;;;;;;1051071;28;2773;-49
2022/09/01 03:37:06;;;;;;;;;;;;;;;;;;1052817;28;4082;-50
2022/09/01 03:37:36;;;;;;;;;;;;;;;;;;1050149;28;3604;-47
2022/09/01 03:38:07;;;;;;;;;;;;;;;;;;1052502;28;4145;-47
2022/09/01 03:38:37;;;;;;;;;;;;;;;;;;1045320;28;2822;-53
2022/09/01 03:39:08;;;;;;;;;;;;;;;;;;1047957;28;4052;-49
2022/09/01 03:39:39;;;;;;;;;;;;;;;;;;1046353;28;2851;-49
2022/09/01 03:40:10;;;;;;;;;;;;;;;;;;1048476;28;7682;-50
2022/09/01 03:40:40;;;;;;;;;;;;;;;;;;1050238;28;2494;-53
2022/09/01 03:41:11;;;;;;;;;;;;;;;;;;1047743;28;4034;-51
2022/09/01 03:41:42;;;;;;;;;;;;;;;;;;1046430;28;2765;-46
2022/09/01 03:42:18;;;;;;;;;;;;;;;;;;1047048;28;4024;-49
2022/09/01 03:42:51;;;;;;;;;;;;;;;;;;1045928;28;4057;-51
2022/09/01 03:43:25;;;;;;;;;;;;;;;;;;1049572;28;2554;-50
2022/09/01 03:43:59;;;;;;;;;;;;;;;;;;1048355;28;4050;-52
2022/09/01 03:44:34;;;;;;;;;;;;;;;;;;1049370;28;2782;-51
2022/09/01 03:45:08;;;;;;;;;;;;;;;;;;1049751;28;4309;-49
2022/09/01 03:45:39;;;;;;;;;;;;;;;;;;1052138;28;3189;-51